Time;durP1;ratioP1;P1;durP2;ratioP2;P2;SDS_P1;SDS_P2;PMS_P1;PMS_P2;Temp;Humidity;BMP_temperature;BMP_pressure;BME280_temperature;BME280_humidity;BME280_pressure;Samples;Min_cycle;Max_cycle;Signal;HPM_P1;HPM_P2
2021/04/08 00:00:08;;;;;;;6.10;5.60;;;;;;;-0.10;87.72;98392.03;5063128;28;20224;-71
2021/04/08 00:02:37;;;;;;;5.97;5.50;;;;;;;-0.07;87.94;98391.84;5066166;28;20201;-72
2021/04/08 00:05:05;;;;;;;6.37;5.80;;;;;;;-0.09;88.08;98392.84;5066345;28;20211;-72
2021/04/08 00:07:31;;;;;;;8.97;6.67;;;;;;;-0.09;87.69;98398.91;5065763;28;20206;-72
2021/04/08 00:09:58;;;;;;;6.57;5.97;;;;;;;-0.09;87.88;98401.50;5065998;28;20585;-71
2021/04/08 00:12:25;;;;;;;6.43;5.20;;;;;;;-0.11;87.58;98398.16;5065688;28;20206;-72
2021/04/08 00:14:52;;;;;;;6.80;6.20;;;;;;;-0.06;88.76;98396.13;5065933;28;20195;-71
2021/04/08 00:17:19;;;;;;;6.00;5.43;;;;;;;-0.09;87.75;98393.69;5065175;28;20226;-69
2021/04/08 00:19:47;;;;;;;6.53;5.93;;;;;;;-0.08;88.73;98402.34;5065817;28;20226;-71
2021/04/08 00:22:14;;;;;;;6.10;5.33;;;;;;;-0.13;88.56;98404.38;5064890;28;20222;-70
2021/04/08 00:24:41;;;;;;;5.40;5.00;;;;;;;-0.13;87.95;98401.75;5064531;28;20654;-70
2021/04/08 00:27:08;;;;;;;7.67;5.43;;;;;;;-0.12;87.81;98411.25;5066122;28;20203;-71
2021/04/08 00:29:35;;;;;;;6.37;5.63;;;;;;;-0.16;88.69;98408.00;5064230;28;20223;-71
2021/04/08 00:32:03;;;;;;;6.83;6.23;;;;;;;-0.19;88.53;98413.34;5066081;28;20489;-72
2021/04/08 00:34:30;;;;;;;5.67;5.17;;;;;;;-0.15;90.00;98420.09;5063159;28;20226;-72
2021/04/08 00:36:57;;;;;;;5.90;5.33;;;;;;;-0.22;89.34;98408.31;5065074;28;20920;-70
2021/04/08 00:39:24;;;;;;;6.63;6.13;;;;;;;-0.22;89.94;98410.91;5063449;28;20226;-71
2021/04/08 00:41:52;;;;;;;6.83;6.30;;;;;;;-0.28;89.83;98413.88;5064921;28;20218;-70
2021/04/08 00:44:19;;;;;;;6.83;6.23;;;;;;;-0.22;90.22;98403.09;5064623;28;20264;-69
2021/04/08 00:46:46;;;;;;;6.47;5.97;;;;;;;-0.25;89.95;98406.75;5066033;28;20275;-71
2021/04/08 00:49:13;;;;;;;5.90;5.30;;;;;;;-0.24;90.89;98410.16;5063212;28;20226;-71
2021/04/08 00:51:40;;;;;;;6.23;5.60;;;;;;;-0.31;90.03;98407.91;5064752;28;20195;-72
2021/04/08 00:54:08;;;;;;;6.20;5.70;;;;;;;-0.27;90.15;98411.19;5064597;28;20195;-72
2021/04/08 00:56:35;;;;;;;6.37;5.70;;;;;;;-0.32;89.75;98403.63;5065020;28;20203;-72
2021/04/08 00:59:02;;;;;;;6.37;5.87;;;;;;;-0.27;88.22;98412.94;5060985;28;20223;-71
2021/04/08 01:01:30;;;;;;;6.77;5.83;;;;;;;-0.22;86.96;98414.38;5063162;28;20625;-71
2021/04/08 01:03:57;;;;;;;7.90;5.50;;;;;;;-0.26;87.24;98425.03;5059568;28;20202;-71
2021/04/08 01:06:24;;;;;;;5.53;5.03;;;;;;;-0.21;86.33;98428.22;5063286;28;20786;-71
2021/04/08 01:08:51;;;;;;;5.50;5.00;;;;;;;-0.22;84.60;98427.41;5064594;28;20252;-70
2021/04/08 01:11:19;;;;;;;6.10;5.53;;;;;;;-0.19;83.81;98429.84;5065278;28;20199;-71
2021/04/08 01:13:46;;;;;;;5.77;5.27;;;;;;;-0.23;85.16;98437.91;5064573;28;21113;-72
2021/04/08 01:16:16;;;;;;;6.10;5.50;;;;;;;-0.05;82.26;98441.25;5061765;28;20203;-70
2021/04/08 01:18:57;;;;;;;5.33;4.80;;;;;;;-0.06;82.06;98440.44;5062548;28;20268;-71
2021/04/08 01:21:28;;;;;;;6.67;5.27;;;;;;;-0.07;80.96;98443.97;5062157;28;20210;-70
2021/04/08 01:24:29;;;;;;;5.27;4.77;;;;;;;-0.05;80.76;98443.84;5063228;28;20233;-72
2021/04/08 01:27:23;;;;;;;9.07;5.23;;;;;;;-0.11;80.25;98442.44;5063782;28;20205;-72
2021/04/08 01:29:59;;;;;;;5.47;5.07;;;;;;;-0.09;80.74;98437.13;5058948;28;20226;-73
2021/04/08 01:32:28;;;;;;;5.90;5.23;;;;;;;-0.11;80.57;98447.66;5062282;28;20213;-69
2021/04/08 01:34:58;;;;;;;6.47;4.63;;;;;;;-0.15;79.99;98446.97;5061301;28;20209;-72
2021/04/08 01:37:28;;;;;;;4.63;4.33;;;;;;;-0.19;80.48;98448.06;5063151;28;20219;-70
2021/04/08 01:39:56;;;;;;;5.60;5.20;;;;;;;-0.22;81.31;98450.84;5061870;28;20254;-70
2021/04/08 01:42:24;;;;;;;5.37;4.87;;;;;;;-0.21;80.86;98451.69;5063459;28;20298;-72
2021/04/08 01:44:53;;;;;;;5.90;5.27;;;;;;;-0.21;80.57;98455.13;5063523;28;20209;-70
2021/04/08 01:47:20;;;;;;;5.57;5.07;;;;;;;-0.25;81.40;98450.16;5063855;28;20292;-70
2021/04/08 01:49:49;;;;;;;8.37;5.67;;;;;;;-0.28;81.80;98451.19;5061374;28;20253;-69
2021/04/08 01:52:17;;;;;;;5.77;5.27;;;;;;;-0.30;81.57;98459.06;5061899;28;20214;-72
2021/04/08 01:54:46;;;;;;;5.03;4.70;;;;;;;-0.28;80.99;98465.97;5061286;28;20571;-71
2021/04/08 01:57:13;;;;;;;4.90;4.43;;;;;;;-0.35;82.00;98463.69;5061838;28;20227;-70
2021/04/08 01:59:42;;;;;;;5.90;5.40;;;;;;;-0.23;80.76;98450.91;5062558;28;20221;-71
2021/04/08 02:02:10;;;;;;;5.40;4.90;;;;;;;-0.31;81.37;98457.41;5059966;28;20234;-71
2021/04/08 02:04:39;;;;;;;6.17;5.67;;;;;;;-0.36;83.00;98461.19;5063128;28;20298;-71
2021/04/08 02:07:08;;;;;;;5.73;5.23;;;;;;;-0.27;81.00;98462.44;5060962;28;20206;-70
2021/04/08 02:09:37;;;;;;;6.93;5.43;;;;;;;-0.34;81.69;98469.75;5063651;28;20277;-71
2021/04/08 02:12:07;;;;;;;5.80;5.30;;;;;;;-0.35;80.56;98463.69;5059497;28;20203;-70
2021/04/08 02:14:35;;;;;;;8.10;6.23;;;;;;;-0.27;79.92;98465.03;5061995;28;20211;-70
2021/04/08 02:17:03;;;;;;;5.90;5.20;;;;;;;-0.25;79.15;98469.25;5063295;28;20253;-71
2021/04/08 02:19:31;;;;;;;6.53;4.77;;;;;;;-0.27;77.80;98468.50;5060461;28;20215;-70
2021/04/08 02:21:59;;;;;;;5.60;5.10;;;;;;;-0.29;79.22;98472.97;5063317;28;20215;-71
2021/04/08 02:24:27;;;;;;;6.60;6.00;;;;;;;-0.27;77.68;98470.25;5063844;28;20209;-71
2021/04/08 02:26:54;;;;;;;6.23;5.10;;;;;;;-0.28;78.08;98473.78;5058127;28;20685;-70
2021/04/08 02:29:22;;;;;;;6.23;4.50;;;;;;;-0.25;77.42;98468.41;5061307;28;20215;-71
2021/04/08 02:31:49;;;;;;;5.50;5.07;;;;;;;-0.33;77.32;98468.84;5063403;28;20207;-68
2021/04/08 02:34:19;;;;;;;6.00;5.30;;;;;;;-0.35;78.22;98471.50;5061362;28;20210;-69
2021/04/08 02:36:46;;;;;;;5.93;5.37;;;;;;;-0.35;77.79;98471.50;5062253;28;20192;-72
2021/04/08 02:39:13;;;;;;;9.27;5.20;;;;;;;-0.36;76.74;98474.22;5059852;28;20598;-71
2021/04/08 02:41:41;;;;;;;7.37;5.03;;;;;;;-0.38;77.61;98482.09;5061417;28;20692;-71
2021/04/08 02:44:09;;;;;;;8.87;4.97;;;;;;;-0.41;77.64;98484.03;5063513;28;20199;-72
2021/04/08 02:46:36;;;;;;;6.03;5.43;;;;;;;-0.42;77.96;98482.34;5062628;28;20209;-71
2021/04/08 02:49:03;;;;;;;6.20;5.17;;;;;;;-0.41;79.04;98484.03;5062076;28;20229;-72
2021/04/08 02:51:34;;;;;;;8.37;5.50;;;;;;;-0.39;78.93;98490.84;5062860;28;20297;-72
2021/04/08 02:54:06;;;;;;;5.90;5.43;;;;;;;-0.47;80.08;98490.41;5061531;28;20215;-71
2021/04/08 02:56:37;;;;;;;5.40;5.00;;;;;;;-0.53;80.00;98491.56;5061931;28;20198;-72
2021/04/08 02:59:13;;;;;;;5.90;5.27;;;;;;;-0.53;81.26;98498.56;5060486;28;20234;-71
2021/04/08 03:01:44;;;;;;;7.33;5.70;;;;;;;-0.52;79.97;98503.66;5059685;28;20206;-71
2021/04/08 03:04:14;;;;;;;6.60;5.93;;;;;;;-0.56;79.54;98503.94;5057937;28;20198;-70
2021/04/08 03:06:41;;;;;;;6.40;5.90;;;;;;;-0.55;80.81;98503.84;5061312;28;20703;-72
2021/04/08 03:09:08;;;;;;;5.47;5.00;;;;;;;-0.51;79.32;98491.50;5062784;28;20511;-72
2021/04/08 03:11:36;;;;;;;5.70;5.20;;;;;;;-0.53;79.57;98502.00;5061231;28;20812;-72
2021/04/08 03:14:07;;;;;;;5.70;5.20;;;;;;;-0.53;80.09;98506.38;5062283;28;20677;-72
2021/04/08 03:16:38;;;;;;;8.97;5.43;;;;;;;-0.52;78.72;98511.47;5062341;28;20210;-71
2021/04/08 03:19:07;;;;;;;5.60;5.03;;;;;;;-0.57;77.67;98518.69;5062801;28;20223;-72
2021/04/08 03:21:34;;;;;;;6.40;5.43;;;;;;;-0.59;78.97;98517.94;5059528;28;20735;-73
2021/04/08 03:24:02;;;;;;;6.63;5.17;;;;;;;-0.48;77.67;98506.97;5059541;28;20563;-73
2021/04/08 03:26:30;;;;;;;5.17;4.87;;;;;;;-0.56;77.81;98520.38;5059159;28;20207;-69
2021/04/08 03:28:57;;;;;;;6.40;5.90;;;;;;;0.11;80.15;98522.03;5056370;28;20219;-73
2021/04/08 03:31:26;;;;;;;8.33;5.30;;;;;;;-0.30;75.41;98521.59;5062042;28;20294;-72
2021/04/08 03:33:54;;;;;;;5.40;4.90;;;;;;;-0.39;75.13;98539.47;5061711;28;20202;-72
2021/04/08 03:36:22;;;;;;;5.33;4.80;;;;;;;-0.42;75.48;98527.47;5063063;28;20203;-72
2021/04/08 03:38:49;;;;;;;5.07;4.57;;;;;;;-0.45;75.15;98531.06;5062454;28;20610;-72
2021/04/08 03:41:18;;;;;;;8.03;5.30;;;;;;;-0.49;74.79;98539.13;5062340;28;20203;-68
2021/04/08 03:43:45;;;;;;;5.37;4.87;;;;;;;-0.52;75.07;98536.69;5065264;28;20659;-69
2021/04/08 03:46:13;;;;;;;5.27;4.50;;;;;;;-0.62;75.95;98528.50;5065546;28;20210;-72
2021/04/08 03:48:41;;;;;;;5.33;4.93;;;;;;;-0.51;74.93;98531.38;5064341;28;20254;-73
2021/04/08 03:51:09;;;;;;;5.70;5.27;;;;;;;-0.61;75.50;98535.41;5065717;28;20214;-72
2021/04/08 03:53:38;;;;;;;6.70;4.70;;;;;;;-0.61;75.06;98548.41;5064979;28;20670;-72
2021/04/08 03:56:07;;;;;;;8.23;4.50;;;;;;;-0.66;75.51;98547.81;5063866;28;20286;-72
2021/04/08 03:58:35;;;;;;;6.10;5.47;;;;;;;-0.60;74.88;98550.09;5065366;28;20238;-72
2021/04/08 04:01:03;;;;;;;5.73;5.23;;;;;;;-0.70;75.14;98551.50;5063335;28;20295;-72
2021/04/08 04:03:30;;;;;;;5.03;4.57;;;;;;;-0.64;75.32;98549.41;5057731;28;20393;-72
2021/04/08 04:05:59;;;;;;;4.57;4.07;;;;;;;-0.62;75.00;98557.16;5064212;28;20221;-72
2021/04/08 04:08:26;;;;;;;5.27;4.87;;;;;;;-0.65;74.91;98552.09;5065427;28;20833;-72
2021/04/08 04:10:53;;;;;;;5.90;4.83;;;;;;;-0.58;74.53;98556.06;5064195;28;20302;-72
2021/04/08 04:13:22;;;;;;;7.10;5.07;;;;;;;-0.67;74.49;98562.59;5064506;28;20213;-72
2021/04/08 04:15:49;;;;;;;6.70;4.57;;;;;;;-0.63;74.17;98566.72;5064683;28;20421;-73
2021/04/08 04:18:17;;;;;;;9.30;5.20;;;;;;;-0.64;75.28;98567.63;5061948;28;20733;-73
2021/04/08 04:20:45;;;;;;;6.57;4.83;;;;;;;-0.70;74.61;98570.56;5063860;28;20225;-74
2021/04/08 04:23:13;;;;;;;6.37;5.17;;;;;;;-0.76;75.08;98576.06;5063511;28;20231;-73
2021/04/08 04:25:40;;;;;;;7.37;5.23;;;;;;;-0.78;75.21;98580.53;5063153;28;20208;-73
2021/04/08 04:28:07;;;;;;;6.03;5.13;;;;;;;-0.80;75.56;98585.78;5063482;28;20223;-73
2021/04/08 04:30:35;;;;;;;5.10;4.70;;;;;;;-0.78;75.69;98589.16;5064752;28;20321;-72
2021/04/08 04:33:02;;;;;;;5.20;4.80;;;;;;;-0.81;75.54;98585.88;5062794;28;20195;-72
2021/04/08 04:35:29;;;;;;;4.50;4.20;;;;;;;-0.87;76.64;98589.63;5064630;28;20297;-73
2021/04/08 04:37:57;;;;;;;5.33;4.90;;;;;;;-0.76;75.90;98586.50;5061768;28;20223;-72
2021/04/08 04:40:26;;;;;;;5.77;5.10;;;;;;;-0.88;75.87;98590.53;5062759;28;20619;-69
2021/04/08 04:42:53;;;;;;;6.17;5.73;;;;;;;-0.86;75.65;98593.09;5062779;28;20230;-72
2021/04/08 04:45:20;;;;;;;5.53;5.00;;;;;;;-0.91;77.52;98601.97;5060532;28;20262;-73
2021/04/08 04:47:47;;;;;;;7.23;5.33;;;;;;;-0.93;76.37;98606.41;5059120;28;20203;-72
2021/04/08 04:50:15;;;;;;;8.10;5.37;;;;;;;-0.89;76.46;98605.34;5064686;28;20223;-71
2021/04/08 04:52:42;;;;;;;9.20;5.43;;;;;;;-0.85;74.96;98608.59;5063656;28;20206;-71
2021/04/08 04:55:10;;;;;;;8.30;5.57;;;;;;;-0.78;75.07;98614.34;5063681;28;20199;-72
2021/04/08 04:57:38;;;;;;;7.63;5.90;;;;;;;-0.74;75.66;98615.88;5064573;28;20226;-72
2021/04/08 05:00:06;;;;;;;5.63;5.07;;;;;;;-0.82;75.82;98618.88;5063805;28;20229;-71
2021/04/08 05:02:33;;;;;;;5.90;5.40;;;;;;;-0.80;75.79;98627.44;5065078;28;20199;-72
2021/04/08 05:05:00;;;;;;;5.67;5.10;;;;;;;-0.83;76.68;98631.97;5064040;28;20238;-72
2021/04/08 05:07:27;;;;;;;7.23;5.10;;;;;;;-0.85;75.66;98628.59;5064823;28;20199;-70
2021/04/08 05:09:54;;;;;;;5.53;5.13;;;;;;;-0.78;75.49;98630.81;5061426;28;20706;-70
2021/04/08 05:12:21;;;;;;;10.20;5.57;;;;;;;-0.78;75.77;98636.00;5060906;28;20693;-71
2021/04/08 05:14:50;;;;;;;7.23;5.10;;;;;;;-0.70;75.94;98634.81;5064057;28;20613;-72
2021/04/08 05:17:17;;;;;;;6.00;5.50;;;;;;;-0.64;75.39;98637.91;5062586;28;20746;-70
2021/04/08 05:19:45;;;;;;;5.37;4.97;;;;;;;-0.62;75.24;98641.28;5063670;28;20223;-71
2021/04/08 05:22:12;;;;;;;6.40;5.33;;;;;;;-0.69;74.88;98641.69;5062669;28;20207;-71
2021/04/08 05:24:39;;;;;;;16.87;13.43;;;;;;;-0.63;75.97;98636.19;5060642;28;20210;-71
2021/04/08 05:27:07;;;;;;;8.17;7.47;;;;;;;-0.77;75.90;98642.91;5061143;28;20361;-71
2021/04/08 05:29:34;;;;;;;7.17;6.13;;;;;;;-0.78;76.93;98646.41;5062183;28;20223;-71
2021/04/08 05:32:02;;;;;;;7.47;6.57;;;;;;;-0.74;76.76;98647.97;5064323;28;20205;-72
2021/04/08 05:34:29;;;;;;;9.00;8.07;;;;;;;-0.57;77.11;98648.88;5058471;28;20208;-71
2021/04/08 05:36:56;;;;;;;8.17;7.50;;;;;;;-0.64;75.85;98656.16;5065613;28;20301;-71
2021/04/08 05:39:23;;;;;;;7.73;6.53;;;;;;;-0.55;75.59;98661.84;5061306;28;20313;-72
2021/04/08 05:41:50;;;;;;;16.03;14.47;;;;;;;-0.48;76.28;98665.81;5064087;28;20318;-70
2021/04/08 05:44:17;;;;;;;7.57;6.83;;;;;;;-0.54;76.68;98666.13;5062909;28;20211;-70
2021/04/08 05:46:44;;;;;;;18.17;16.27;;;;;;;-0.49;76.43;98669.31;5064081;28;20230;-70
2021/04/08 05:49:12;;;;;;;8.97;8.13;;;;;;;-0.40;77.75;98666.25;5058045;28;20235;-70
2021/04/08 05:51:39;;;;;;;7.53;6.77;;;;;;;-0.35;76.91;98677.28;5058773;28;20206;-71
2021/04/08 05:54:07;;;;;;;9.57;7.07;;;;;;;-0.41;76.10;98684.53;5063034;28;20623;-71
2021/04/08 05:56:34;;;;;;;10.80;6.63;;;;;;;-0.43;77.17;98682.03;5063039;28;20213;-71
2021/04/08 05:59:01;;;;;;;5.93;5.53;;;;;;;-0.42;77.12;98685.47;5057037;28;20231;-70
2021/04/08 06:01:29;;;;;;;10.23;5.83;;;;;;;-0.42;76.60;98691.53;5059332;28;20206;-71
2021/04/08 06:03:56;;;;;;;7.20;6.60;;;;;;;-0.42;76.14;98688.94;5061535;28;20609;-71
2021/04/08 06:06:24;;;;;;;6.43;5.83;;;;;;;-0.40;75.56;98689.69;5061701;28;20295;-71
2021/04/08 06:08:51;;;;;;;9.40;7.53;;;;;;;-0.34;76.43;98697.19;5056155;28;20601;-70
2021/04/08 06:11:18;;;;;;;9.60;7.63;;;;;;;-0.26;75.51;98703.78;5060448;28;20207;-70
2021/04/08 06:13:47;;;;;;;5.97;5.37;;;;;;;-0.11;75.46;98710.81;5059205;28;20317;-69
2021/04/08 06:16:15;;;;;;;8.23;6.03;;;;;;;-0.28;75.51;98710.81;5059071;28;20747;-71
2021/04/08 06:18:46;;;;;;;7.23;6.60;;;;;;;-0.20;75.70;98713.88;5059691;28;20238;-70
2021/04/08 06:21:13;;;;;;;9.10;8.27;;;;;;;-0.27;76.33;98713.34;5061739;28;20203;-69
2021/04/08 06:23:41;;;;;;;17.87;12.63;;;;;;;-0.28;76.59;98711.69;5059738;28;20649;-71
2021/04/08 06:26:08;;;;;;;8.40;7.57;;;;;;;-0.17;75.79;98713.75;5058377;28;20203;-72
2021/04/08 06:28:36;;;;;;;7.80;6.73;;;;;;;-0.15;75.80;98719.72;5059691;28;20317;-70
2021/04/08 06:31:03;;;;;;;8.13;7.33;;;;;;;-0.12;75.58;98718.69;5061284;28;20207;-72
2021/04/08 06:33:30;;;;;;;8.20;5.90;;;;;;;0.08;75.85;98725.50;5059472;28;20352;-71
2021/04/08 06:35:57;;;;;;;6.33;5.73;;;;;;;0.01;75.38;98724.97;5059713;28;20222;-72
2021/04/08 06:38:24;;;;;;;6.90;5.97;;;;;;;0.10;74.83;98739.28;5056704;28;20277;-72
2021/04/08 06:40:53;;;;;;;7.53;6.87;;;;;;;0.33;73.98;98734.66;5057187;28;20280;-70
2021/04/08 06:43:22;;;;;;;6.07;5.57;;;;;;;0.25;73.69;98728.06;5039621;28;20206;-72
2021/04/08 06:45:51;;;;;;;10.97;6.60;;;;;;;0.33;72.68;98734.66;5056650;28;20238;-70
2021/04/08 06:48:21;;;;;;;6.90;5.47;;;;;;;0.41;72.64;98730.72;5057483;28;20280;-70
2021/04/08 06:50:51;;;;;;;7.13;6.10;;;;;;;0.55;71.79;98729.94;5059952;28;20287;-68
2021/04/08 06:53:18;;;;;;;9.23;7.10;;;;;;;0.56;72.30;98733.41;5060732;28;20266;-71
2021/04/08 06:55:47;;;;;;;7.47;6.77;;;;;;;0.52;71.59;98748.38;5057403;28;20217;-72
2021/04/08 06:58:16;;;;;;;6.87;6.17;;;;;;;0.71;71.73;98748.22;5059536;28;20595;-70
2021/04/08 07:01:02;;;;;;;6.90;5.67;;;;;;;0.71;71.34;98739.56;5056204;28;20218;-70
2021/04/08 07:03:29;;;;;;;6.97;6.33;;;;;;;0.79;70.39;98750.44;5059622;28;20206;-70
2021/04/08 07:05:56;;;;;;;33.60;19.50;;;;;;;0.76;70.21;98750.59;5061934;28;20301;-72
2021/04/08 07:08:24;;;;;;;52.37;21.10;;;;;;;0.88;69.99;98743.03;5056410;28;20297;-70
2021/04/08 07:10:51;;;;;;;32.87;14.23;;;;;;;1.04;70.25;98753.47;5055979;28;20643;-71
2021/04/08 07:13:20;;;;;;;53.57;22.27;;;;;;;0.76;69.78;98750.59;5059356;28;20288;-70
2021/04/08 07:15:47;;;;;;;12.60;8.23;;;;;;;0.83;69.92;98765.00;5060665;28;20206;-69
2021/04/08 07:18:15;;;;;;;10.27;6.97;;;;;;;0.92;69.69;98754.97;5056183;28;20234;-71
2021/04/08 07:20:42;;;;;;;72.97;27.87;;;;;;;1.05;69.26;98758.63;5059609;28;20217;-72
2021/04/08 07:23:10;;;;;;;37.47;15.27;;;;;;;1.17;69.45;98754.47;5059059;28;20229;-71
2021/04/08 07:25:37;;;;;;;46.67;17.90;;;;;;;1.18;69.32;98760.53;5058783;28;20229;-71
2021/04/08 07:28:33;;;;;;;12.17;6.53;;;;;;;1.13;68.65;98763.38;5054191;28;20206;-70
2021/04/08 07:31:23;;;;;;;21.83;17.60;;;;;;;1.26;68.05;98761.78;5061111;28;20233;-71
2021/04/08 07:33:50;;;;;;;30.53;15.10;;;;;;;1.39;67.98;98769.78;5052483;28;20303;-70
2021/04/08 07:36:25;;;;;;;6.40;5.50;;;;;;;1.08;66.14;98774.09;5053436;28;20212;-70
2021/04/08 07:38:52;;;;;;;18.57;9.53;;;;;;;1.09;68.45;98773.19;5056244;28;20321;-70
2021/04/08 07:41:24;;;;;;;55.30;19.30;;;;;;;1.11;67.86;98779.16;5060256;28;20229;-71
2021/04/08 07:44:04;;;;;;;23.60;12.57;;;;;;;1.50;67.31;98773.56;5054052;28;20276;-71
2021/04/08 07:46:33;;;;;;;21.73;12.97;;;;;;;1.44;66.96;98779.97;5060909;28;20682;-71
2021/04/08 07:49:01;;;;;;;15.47;9.07;;;;;;;1.58;66.42;98781.78;5059664;28;20622;-69
2021/04/08 07:51:29;;;;;;;43.20;26.97;;;;;;;1.48;67.30;98788.47;5057692;28;20305;-70
2021/04/08 07:54:13;;;;;;;16.03;10.07;;;;;;;1.40;66.30;98804.56;5061106;28;20643;-70
2021/04/08 07:56:40;;;;;;;21.60;11.10;;;;;;;1.36;66.42;98796.09;5061128;28;20658;-71
2021/04/08 07:59:21;;;;;;;64.30;27.10;;;;;;;1.22;67.53;98803.81;5055596;28;20762;-70
2021/04/08 08:01:49;;;;;;;38.33;19.20;;;;;;;1.21;67.07;98794.31;5055735;28;20202;-68
2021/04/08 08:04:22;;;;;;;23.97;14.17;;;;;;;1.34;67.57;98803.16;5055089;28;20617;-70
2021/04/08 08:06:49;;;;;;;9.73;6.77;;;;;;;1.26;68.15;98815.78;5059551;28;20298;-70
2021/04/08 08:09:22;;;;;;;12.67;8.27;;;;;;;1.58;66.94;98805.31;5058871;28;20241;-70
2021/04/08 08:11:49;;;;;;;36.07;20.17;;;;;;;1.51;66.02;98811.81;5058137;28;20297;-69
2021/04/08 08:14:31;;;;;;;30.40;14.37;;;;;;;1.47;66.86;98808.50;5056566;28;20306;-71
2021/04/08 08:17:03;;;;;;;5.73;5.27;;;;;;;1.44;65.83;98812.16;5057577;28;20211;-72
2021/04/08 08:19:31;;;;;;;13.07;10.43;;;;;;;1.71;65.56;98808.94;5055715;28;20240;-71
2021/04/08 08:21:58;;;;;;;7.23;6.20;;;;;;;1.68;66.07;98806.47;5057350;28;20203;-71
2021/04/08 08:24:26;;;;;;;8.70;7.80;;;;;;;1.92;66.05;98823.47;5061302;28;20774;-71
2021/04/08 08:26:53;;;;;;;13.27;8.20;;;;;;;2.10;64.99;98817.16;5062827;28;20672;-72
2021/04/08 08:29:23;;;;;;;8.00;7.27;;;;;;;2.16;62.81;98827.25;5061726;28;20650;-71
2021/04/08 08:31:52;;;;;;;9.30;6.40;;;;;;;2.07;62.81;98832.16;5059454;28;20205;-69
2021/04/08 08:34:22;;;;;;;7.97;6.63;;;;;;;1.88;62.20;98826.22;5061449;28;20682;-71
2021/04/08 08:36:51;;;;;;;7.80;4.83;;;;;;;2.02;61.98;98821.97;5060169;28;20203;-71
2021/04/08 08:39:21;;;;;;;6.50;5.57;;;;;;;2.37;62.57;98826.91;5061268;28;20230;-71
2021/04/08 08:41:49;;;;;;;6.27;4.90;;;;;;;2.07;60.54;98829.53;5057245;28;20276;-71
2021/04/08 08:44:19;;;;;;;7.70;6.77;;;;;;;2.49;61.39;98827.97;5060518;28;20202;-71
2021/04/08 08:46:52;;;;;;;38.20;25.63;;;;;;;2.45;59.22;98832.53;5061754;28;20211;-69
2021/04/08 08:49:22;;;;;;;15.53;10.13;;;;;;;2.64;57.15;98831.41;5061282;28;20226;-71
2021/04/08 08:51:50;;;;;;;8.83;7.93;;;;;;;2.64;58.70;98827.97;5059015;28;20203;-72
2021/04/08 08:54:18;;;;;;;11.57;8.30;;;;;;;2.59;57.57;98834.31;5063119;28;20230;-68
2021/04/08 08:56:45;;;;;;;6.43;4.90;;;;;;;2.54;57.85;98836.38;5058744;28;20580;-70
2021/04/08 08:59:13;;;;;;;10.80;7.93;;;;;;;2.61;58.48;98839.44;5059780;28;20234;-70
2021/04/08 09:01:40;;;;;;;20.43;13.67;;;;;;;2.43;58.43;98836.16;5061144;28;20292;-71
2021/04/08 09:04:08;;;;;;;15.13;10.10;;;;;;;2.44;59.37;98843.94;5061774;28;20226;-71
2021/04/08 09:06:56;;;;;;;5.63;5.03;;;;;;;2.56;56.95;98842.34;5060834;28;20195;-69
2021/04/08 09:09:25;;;;;;;15.70;9.63;;;;;;;2.46;58.47;98849.91;5062613;28;20551;-71
2021/04/08 09:11:53;;;;;;;12.13;7.37;;;;;;;2.47;56.32;98853.38;5057446;28;20303;-70
2021/04/08 09:14:21;;;;;;;5.60;5.03;;;;;;;2.44;58.45;98850.91;5061495;28;20651;-70
2021/04/08 09:16:49;;;;;;;11.50;7.60;;;;;;;2.23;59.83;98839.94;5058879;28;20211;-70
2021/04/08 09:19:27;;;;;;;6.97;4.70;;;;;;;2.62;58.16;98848.16;5061076;28;20652;-69
2021/04/08 09:21:58;;;;;;;14.53;7.67;;;;;;;2.78;56.29;98850.69;5060489;28;20202;-71
2021/04/08 09:24:33;;;;;;;7.23;5.30;;;;;;;2.61;57.55;98849.91;5059951;28;20203;-69
2021/04/08 09:27:01;;;;;;;3.93;3.63;;;;;;;2.94;56.65;98847.97;5059285;28;20723;-71
2021/04/08 09:29:48;;;;;;;3.97;3.60;;;;;;;2.94;55.32;98856.66;5057025;28;20319;-71
2021/04/08 09:32:24;;;;;;;3.90;3.60;;;;;;;2.91;54.59;98845.53;5062538;28;20195;-69
2021/04/08 09:35:18;;;;;;;4.17;3.77;;;;;;;2.63;56.36;98845.41;5061840;28;20198;-70
2021/04/08 09:38:19;;;;;;;3.90;3.60;;;;;;;2.89;56.04;98850.84;5064058;28;20633;-71
2021/04/08 09:40:47;;;;;;;3.93;3.53;;;;;;;3.14;54.92;98831.84;5052276;28;20227;-69
2021/04/08 09:43:16;;;;;;;4.37;3.77;;;;;;;3.26;55.88;98838.09;5056598;28;20218;-74
2021/04/08 09:45:44;;;;;;;5.10;3.53;;;;;;;3.32;54.09;98837.72;5057789;28;20394;-75
2021/04/08 09:48:13;;;;;;;3.70;3.50;;;;;;;3.16;53.85;98831.75;5057791;28;20203;-74
2021/04/08 09:50:46;;;;;;;4.13;3.70;;;;;;;3.30;53.36;98833.50;5052344;28;20199;-74
2021/04/08 09:53:13;;;;;;;5.07;4.10;;;;;;;3.52;54.55;98834.75;5061322;28;20210;-75
2021/04/08 09:55:42;;;;;;;4.67;3.80;;;;;;;3.67;53.95;98836.41;5060710;28;20213;-74
2021/04/08 09:58:09;;;;;;;3.70;3.40;;;;;;;3.73;53.51;98837.75;5062977;28;20223;-75
2021/04/08 10:00:36;;;;;;;4.90;4.40;;;;;;;3.62;53.94;98841.94;5060472;28;20233;-75
2021/04/08 10:03:05;;;;;;;6.47;4.63;;;;;;;3.88;54.94;98830.69;5060780;28;20390;-72
2021/04/08 10:05:33;;;;;;;5.03;4.20;;;;;;;3.51;55.10;98843.56;5061003;28;20214;-74
2021/04/08 10:08:05;;;;;;;4.30;3.90;;;;;;;3.59;54.87;98841.28;5058227;28;20678;-74
2021/04/08 10:10:41;;;;;;;9.13;4.60;;;;;;;3.64;54.16;98844.47;5060518;28;20222;-74
2021/04/08 10:13:20;;;;;;;5.83;4.20;;;;;;;3.71;54.95;98837.88;5060783;28;20452;-75
2021/04/08 10:15:48;;;;;;;5.23;4.83;;;;;;;3.69;54.81;98836.28;5060323;28;20203;-72
2021/04/08 10:18:17;;;;;;;4.87;4.37;;;;;;;3.58;55.63;98842.22;5054000;28;20218;-71
2021/04/08 10:20:45;;;;;;;4.93;4.43;;;;;;;3.74;56.28;98844.69;5056639;28;20198;-75
2021/04/08 10:23:14;;;;;;;5.00;4.57;;;;;;;3.57;55.03;98846.63;5056528;28;20545;-74
2021/04/08 10:25:41;;;;;;;6.87;5.70;;;;;;;3.67;55.02;98843.41;5059126;28;20670;-74
2021/04/08 10:28:08;;;;;;;5.17;4.67;;;;;;;3.97;53.77;98837.94;5060137;28;20601;-74
2021/04/08 10:30:38;;;;;;;7.07;4.70;;;;;;;4.07;54.39;98826.84;5060586;28;20903;-74
2021/04/08 10:33:16;;;;;;;4.67;4.13;;;;;;;4.14;52.29;98828.94;5060037;28;20594;-75
2021/04/08 10:35:44;;;;;;;4.53;4.17;;;;;;;4.35;50.68;98824.03;5059074;28;20318;-74
2021/04/08 10:38:11;;;;;;;5.50;4.30;;;;;;;4.04;53.21;98822.66;5060776;28;20627;-74
2021/04/08 10:40:49;;;;;;;4.53;4.03;;;;;;;4.31;52.08;98827.81;5061650;28;20225;-73
2021/04/08 10:43:17;;;;;;;4.53;4.23;;;;;;;4.33;52.94;98827.72;5060514;28;20222;-71
2021/04/08 10:45:53;;;;;;;7.20;4.30;;;;;;;4.49;50.59;98833.59;5056463;28;20602;-74
2021/04/08 10:48:21;;;;;;;4.97;4.43;;;;;;;4.19;52.93;98832.13;5058424;28;20664;-75
2021/04/08 10:50:50;;;;;;;4.17;3.77;;;;;;;4.16;50.94;98834.09;5057426;28;20226;-75
2021/04/08 10:53:19;;;;;;;3.77;3.57;;;;;;;4.45;50.54;98829.50;5061594;28;20260;-73
2021/04/08 10:55:47;;;;;;;5.27;3.80;;;;;;;4.29;48.94;98826.25;5059783;28;20675;-74
2021/04/08 10:58:25;;;;;;;3.60;3.27;;;;;;;4.07;49.68;98832.09;5059747;28;20211;-74
2021/04/08 11:00:52;;;;;;;3.73;3.43;;;;;;;4.26;50.01;98832.53;5060085;28;20205;-75
2021/04/08 11:03:20;;;;;;;4.47;3.40;;;;;;;4.14;50.25;98846.50;5058432;28;20233;-75
2021/04/08 11:05:47;;;;;;;4.73;3.57;;;;;;;4.60;49.58;98837.31;5059846;28;20298;-74
2021/04/08 11:08:15;;;;;;;3.80;3.47;;;;;;;4.29;48.07;98834.97;5060389;28;20713;-75
2021/04/08 11:10:43;;;;;;;4.67;4.20;;;;;;;4.01;49.39;98834.19;5059452;28;20199;-74
2021/04/08 11:13:11;;;;;;;4.07;3.63;;;;;;;3.90;48.68;98848.00;5061436;28;20663;-74
2021/04/08 11:15:42;;;;;;;3.40;3.20;;;;;;;3.68;48.11;98834.59;5060359;28;20223;-72
2021/04/08 11:18:11;;;;;;;4.00;3.70;;;;;;;3.81;49.06;98832.88;5058104;28;20203;-74
2021/04/08 11:20:41;;;;;;;4.13;3.10;;;;;;;3.86;49.85;98848.31;5055749;28;20215;-72
2021/04/08 11:23:09;;;;;;;4.00;3.07;;;;;;;3.93;48.10;98839.09;5058518;28;20683;-74
2021/04/08 11:25:37;;;;;;;4.13;3.73;;;;;;;3.74;49.03;98836.81;5057799;28;20745;-75
2021/04/08 11:28:06;;;;;;;3.93;3.63;;;;;;;4.27;49.02;98843.91;5060038;28;20286;-74
2021/04/08 11:30:38;;;;;;;4.13;3.83;;;;;;;4.32;47.91;98831.31;5061054;28;20700;-74
2021/04/08 11:33:06;;;;;;;3.23;2.90;;;;;;;4.11;47.13;98842.28;5055008;28;20828;-74
2021/04/08 11:35:38;;;;;;;3.83;3.63;;;;;;;4.16;47.45;98837.56;5055161;28;20207;-74
2021/04/08 11:38:08;;;;;;;3.73;3.20;;;;;;;4.12;46.74;98841.34;5056348;28;20226;-75
2021/04/08 11:40:35;;;;;;;2.93;2.63;;;;;;;4.12;47.23;98836.09;5058038;28;20694;-75
2021/04/08 11:43:21;;;;;;;3.67;3.33;;;;;;;4.37;47.27;98838.88;5057286;28;20675;-74